createdAt,value
2019-01-09T00:02:06.560Z,41.68
2019-01-09T00:07:10.388Z,41.51
2019-01-09T00:12:14.241Z,41.48
2019-01-09T00:17:18.138Z,40.99
2019-01-09T00:22:22.017Z,41.49
2019-01-09T00:27:25.835Z,42.01
2019-01-09T00:32:29.625Z,42.01
2019-01-09T00:37:33.437Z,41.12
2019-01-09T00:42:37.358Z,41.12
2019-01-09T00:47:41.172Z,41.11
2019-01-09T00:52:45.011Z,41.04
2019-01-09T00:57:48.858Z,41.04
2019-01-09T01:03:27.018Z,41.58
2019-01-09T01:09:09.236Z,41.98
2019-01-09T01:15:10.605Z,41.98
2019-01-09T01:20:35.876Z,41.41
2019-01-09T01:26:03.792Z,41.32
2019-01-09T01:31:40.376Z,41.27
2019-01-09T01:37:19.362Z,40.61
2019-01-09T01:43:22.431Z,41.02
2019-01-09T01:48:47.349Z,41.31
2019-01-09T01:54:31.498Z,40.59
2019-01-09T01:59:47.033Z,40.59
2019-01-09T02:05:25.377Z,40.84
2019-01-09T02:11:24.823Z,40.96
2019-01-09T02:17:11.913Z,41.28
2019-01-09T02:22:56.146Z,41.38
2019-01-09T02:28:37.098Z,40.58
2019-01-09T02:33:41.013Z,41.57
2019-01-09T02:38:44.804Z,41.38
2019-01-09T02:43:48.597Z,41.38
2019-01-09T02:48:52.397Z,41.29
2019-01-09T02:53:56.190Z,41.37
2019-01-09T02:58:59.998Z,41.93
2019-01-09T03:04:03.860Z,41.55
2019-01-09T03:09:07.644Z,41.94
2019-01-09T03:14:11.422Z,41.66
2019-01-09T03:19:15.189Z,41.73
2019-01-09T03:24:18.973Z,42.03
2019-01-09T03:29:22.753Z,41.86
2019-01-09T03:34:26.537Z,42.34
2019-01-09T03:39:30.321Z,42.34
2019-01-09T03:44:34.207Z,43.04
2019-01-09T03:49:37.959Z,43.04
2019-01-09T03:54:41.723Z,42.93
2019-01-09T03:59:45.497Z,43.46
2019-01-09T04:04:49.290Z,43.00
2019-01-09T04:09:53.062Z,42.74
2019-01-09T04:14:56.848Z,42.83
2019-01-09T04:20:00.629Z,42.83
2019-01-09T04:25:04.556Z,42.67
2019-01-09T04:30:08.527Z,42.71
2019-01-09T04:35:12.332Z,43.09
2019-01-09T04:40:16.119Z,43.10
2019-01-09T04:45:19.897Z,42.99
2019-01-09T04:50:23.668Z,43.63
2019-01-09T04:55:27.455Z,43.63
2019-01-09T05:00:31.275Z,43.41
2019-01-09T05:05:35.065Z,43.39
2019-01-09T05:10:38.849Z,43.71
2019-01-09T05:15:42.640Z,43.05
2019-01-09T05:20:46.411Z,43.05
2019-01-09T05:25:50.176Z,43.48
2019-01-09T05:30:53.950Z,43.39
2019-01-09T05:35:57.724Z,43.39
2019-01-09T05:41:01.502Z,43.65
2019-01-09T05:46:05.275Z,43.79
2019-01-09T05:51:09.046Z,43.45
2019-01-09T05:56:12.824Z,43.94
2019-01-09T06:01:25.636Z,43.47
2019-01-09T06:06:29.405Z,43.52
2019-01-09T06:11:33.190Z,43.25
2019-01-09T06:16:36.960Z,43.27
2019-01-09T06:21:40.741Z,43.20
2019-01-09T06:26:44.532Z,43.98
2019-01-09T06:31:48.311Z,43.70
2019-01-09T06:36:52.114Z,44.00
2019-01-09T06:41:55.933Z,43.74
2019-01-09T06:46:59.708Z,43.93
2019-01-09T06:52:03.483Z,43.93
2019-01-09T06:57:07.262Z,43.95
2019-01-09T07:02:11.046Z,43.95
2019-01-09T07:07:14.817Z,44.06
2019-01-09T07:12:18.582Z,44.06
2019-01-09T07:17:22.358Z,44.00
2019-01-09T07:22:26.132Z,44.18
2019-01-09T07:27:29.905Z,44.18
2019-01-09T07:32:33.686Z,43.92
2019-01-09T07:37:44.879Z,43.71
2019-01-09T07:42:42.971Z,43.57
2019-01-09T07:47:46.751Z,43.57
2019-01-09T07:52:50.537Z,44.12
2019-01-09T07:57:54.317Z,34.01
2019-01-09T08:02:58.084Z,39.77
2019-01-09T08:08:01.866Z,35.78
2019-01-09T08:13:05.641Z,35.78
2019-01-09T08:18:09.412Z,32.39
2019-01-09T08:23:13.188Z,32.39
2019-01-09T08:28:16.965Z,33.00
2019-01-09T08:33:20.819Z,34.02
2019-01-09T08:38:24.625Z,34.08
2019-01-09T08:43:28.409Z,34.08
2019-01-09T08:48:32.189Z,36.39
2019-01-09T08:53:35.966Z,37.24
2019-01-09T08:58:39.745Z,37.80
2019-01-09T09:03:43.518Z,37.47
2019-01-09T09:08:47.303Z,37.47
2019-01-09T09:13:51.093Z,38.37
2019-01-09T09:18:54.881Z,38.55
2019-01-09T09:23:58.653Z,38.55
2019-01-09T09:29:02.426Z,38.73
2019-01-09T09:34:06.223Z,38.68
2019-01-09T09:39:10.566Z,39.68
2019-01-09T09:44:14.349Z,39.68
2019-01-09T09:49:18.138Z,39.51
2019-01-09T09:54:23.405Z,39.90
2019-01-09T09:59:27.394Z,41.17
2019-01-09T10:04:31.181Z,41.41
2019-01-09T10:09:34.993Z,41.24
2019-01-09T10:14:38.787Z,40.98
2019-01-09T10:19:42.580Z,40.98
2019-01-09T10:24:46.382Z,40.82
2019-01-09T10:29:50.182Z,40.82
2019-01-09T10:34:53.993Z,41.57
2019-01-09T10:39:57.782Z,41.90
2019-01-09T10:45:01.621Z,42.59
2019-01-09T10:50:06.196Z,42.59
2019-01-09T10:55:10.516Z,41.59
2019-01-09T11:00:20.411Z,41.59
2019-01-09T11:05:24.341Z,41.20
2019-01-09T11:10:28.117Z,41.20
2019-01-09T11:15:31.904Z,41.21
2019-01-09T11:20:35.686Z,41.33
2019-01-09T11:25:39.476Z,41.85
2019-01-09T11:30:43.258Z,42.28
2019-01-09T11:35:47.052Z,42.28
2019-01-09T11:40:50.828Z,42.55
2019-01-09T11:45:54.617Z,43.01
2019-01-09T11:50:58.420Z,42.31
2019-01-09T11:56:02.197Z,42.42
2019-01-09T12:01:05.996Z,42.36
2019-01-09T12:06:09.778Z,42.36
2019-01-09T12:11:13.551Z,42.46
2019-01-09T12:16:17.334Z,42.97
2019-01-09T12:21:21.123Z,42.62
2019-01-09T12:26:24.921Z,43.26
2019-01-09T12:31:28.688Z,43.44
2019-01-09T12:36:32.462Z,43.44
2019-01-09T12:41:36.249Z,43.60
2019-01-09T12:46:40.021Z,43.37
2019-01-09T12:51:43.809Z,43.17
2019-01-09T12:56:47.589Z,43.71
2019-01-09T13:01:51.461Z,43.36
2019-01-09T13:06:55.224Z,43.36
2019-01-09T13:11:59.066Z,43.88
2019-01-09T13:17:11.511Z,35.18
2019-01-09T13:22:08.364Z,36.53
2019-01-09T13:27:12.148Z,38.41
2019-01-09T13:32:16.149Z,36.34
2019-01-09T13:37:19.940Z,33.25
2019-01-09T13:42:23.723Z,33.98
2019-01-09T13:47:27.500Z,33.98
2019-01-09T13:52:31.288Z,35.15
2019-01-09T13:57:35.069Z,35.19
2019-01-09T14:02:38.846Z,35.66
2019-01-09T14:07:42.667Z,36.13
2019-01-09T14:12:46.436Z,36.73
2019-01-09T14:17:50.335Z,37.30
2019-01-09T14:22:54.161Z,37.28
2019-01-09T14:27:57.953Z,37.74
2019-01-09T14:33:01.763Z,39.22
2019-01-09T14:38:05.550Z,39.69
2019-01-09T14:43:09.348Z,39.69
2019-01-09T14:48:13.170Z,39.93
2019-01-09T14:53:16.976Z,40.41
2019-01-09T14:58:20.895Z,40.75
2019-01-09T15:03:24.832Z,40.57
2019-01-09T15:08:28.636Z,40.89
2019-01-09T15:13:32.444Z,40.89
2019-01-09T15:18:36.283Z,41.48
2019-01-09T15:23:40.140Z,42.32
2019-01-09T15:28:43.954Z,42.27
2019-01-09T15:33:47.785Z,41.75
2019-01-09T15:38:51.615Z,41.81
2019-01-09T15:43:55.434Z,41.33
2019-01-09T15:48:59.252Z,41.33
2019-01-09T15:54:04.742Z,41.39
2019-01-09T15:59:08.914Z,41.97
2019-01-09T16:04:12.977Z,41.97
2019-01-09T16:09:16.802Z,42.19
2019-01-09T16:14:20.608Z,42.19
2019-01-09T16:19:24.529Z,42.33
2019-01-09T16:24:28.491Z,42.65
2019-01-09T16:29:33.891Z,41.91
2019-01-09T16:34:37.881Z,41.91
2019-01-09T16:39:41.711Z,41.38
2019-01-09T16:44:45.515Z,41.38
2019-01-09T16:49:49.322Z,41.47
2019-01-09T16:54:53.246Z,41.34
2019-01-09T16:59:57.181Z,41.67
2019-01-09T17:05:01.057Z,42.55
2019-01-09T17:10:06.522Z,42.55
2019-01-09T17:15:11.711Z,42.66
2019-01-09T17:20:17.684Z,42.91
2019-01-09T17:25:23.772Z,43.14
2019-01-09T17:30:28.404Z,43.46
2019-01-09T17:35:32.238Z,43.26
2019-01-09T17:40:40.874Z,42.93
2019-01-09T17:45:41.735Z,42.93
2019-01-09T17:50:45.669Z,43.06
2019-01-09T17:55:49.467Z,43.30
2019-01-09T18:00:53.468Z,43.28
2019-01-09T18:05:57.321Z,43.16
2019-01-09T18:11:02.362Z,43.00
2019-01-09T18:16:07.634Z,43.44
2019-01-09T18:21:11.472Z,42.70
2019-01-09T18:26:15.272Z,42.39
2019-01-09T18:31:37.321Z,42.69
2019-01-09T18:37:33.275Z,42.44
2019-01-09T18:43:18.025Z,42.51
2019-01-09T18:48:50.828Z,42.51
2019-01-09T18:53:55.603Z,43.11
2019-01-09T18:59:01.452Z,42.96
2019-01-09T19:04:05.254Z,43.22
2019-01-09T19:09:10.324Z,43.18
2019-01-09T19:14:14.128Z,43.17
2019-01-09T19:19:17.910Z,42.91
2019-01-09T19:24:22.004Z,42.47
2019-01-09T19:29:25.823Z,42.47
2019-01-09T19:34:29.899Z,42.53
2019-01-09T19:39:33.677Z,42.54
2019-01-09T19:44:37.476Z,42.84
2019-01-09T19:49:41.271Z,42.84
2019-01-09T19:54:45.059Z,42.93
2019-01-09T19:59:48.837Z,42.93
2019-01-09T20:04:52.631Z,43.05
2019-01-09T20:09:56.502Z,43.34
2019-01-09T20:15:00.343Z,42.99
2019-01-09T20:20:05.792Z,42.81
2019-01-09T20:25:09.671Z,43.12
2019-01-09T20:30:27.826Z,42.87
2019-01-09T20:35:31.819Z,42.75
2019-01-09T20:40:35.621Z,42.75
2019-01-09T20:45:39.464Z,43.00
2019-01-09T20:50:43.280Z,42.19
2019-01-09T20:55:47.226Z,42.19
2019-01-09T21:00:51.095Z,42.19
2019-01-09T21:05:54.897Z,42.37
2019-01-09T21:10:58.662Z,42.37
2019-01-09T21:16:02.549Z,42.57
2019-01-09T21:21:06.360Z,42.57
2019-01-09T21:26:10.179Z,42.98
2019-01-09T21:31:14.077Z,43.12
2019-01-09T21:36:17.878Z,43.19
2019-01-09T21:41:21.674Z,42.75
2019-01-09T21:46:25.477Z,43.19
2019-01-09T21:51:29.281Z,43.16
2019-01-09T21:56:33.085Z,42.83
2019-01-09T22:01:36.891Z,42.96
2019-01-09T22:06:40.677Z,42.96
2019-01-09T22:11:44.479Z,42.94
2019-01-09T22:16:48.270Z,42.54
2019-01-09T22:21:52.069Z,43.33
2019-01-09T22:26:55.873Z,43.28
2019-01-09T22:31:59.720Z,42.99
2019-01-09T22:37:03.526Z,43.36
2019-01-09T22:42:12.008Z,43.36
2019-01-09T22:47:12.886Z,43.51
2019-01-09T22:52:16.674Z,43.22
2019-01-09T22:57:20.475Z,43.41
2019-01-09T23:02:26.560Z,43.79
2019-01-09T23:07:30.366Z,43.42
2019-01-09T23:12:34.129Z,44.18
2019-01-09T23:17:37.908Z,43.82
2019-01-09T23:22:41.694Z,43.82
2019-01-09T23:27:45.474Z,43.06
2019-01-09T23:32:49.252Z,43.44
2019-01-09T23:37:53.057Z,43.23
2019-01-09T23:42:56.849Z,43.23
2019-01-09T23:48:00.627Z,43.88
2019-01-09T23:53:04.414Z,43.88
2019-01-09T23:58:08.203Z,44.15
